Terminal Aerodrome Forecast
Issued by NWS

Home | Current Version | Previous Version | Text Only | Print | Product List | Glossary On
Versions: 1 2 3 4 5 6 7 8 9 10 11 12 13 14 15 16 17 18 19 20 21 22 23 24 25 26 27 28
000
FTUS41 KBTV 021122
TAFSLK
TAF
KSLK 021122Z 0212/0312 00000KT 3SM BR BKN006 OVC020
     FM021400 00000KT 6SM BR SCT015 OVC020
     FM021700 02007KT P6SM SCT025 OVC035
     FM030500 00000KT P6SM FEW015 SCT050
     FM030700 00000KT 2SM BR OVC010=

USA.gov is the U.S. government's official web portal to all federal, state and local government web resources and services.